createdAt,value
2024-01-29T00:00:53.877Z,10.50
2024-01-29T00:03:21.767Z,9.83
2024-01-29T00:05:49.593Z,10.23
2024-01-29T00:08:17.379Z,10.33
2024-01-29T00:10:49.038Z,10.10
2024-01-29T00:13:16.940Z,10.57
2024-01-29T00:15:44.636Z,10.37
2024-01-29T00:18:12.419Z,10.23
2024-01-29T00:20:40.213Z,9.87
2024-01-29T00:23:08.296Z,10.30
2024-01-29T00:25:36.419Z,10.30
2024-01-29T00:28:06.431Z,10.80
2024-01-29T00:30:35.551Z,10.27
2024-01-29T00:33:03.471Z,10.13
2024-01-29T00:35:31.235Z,9.73
2024-01-29T00:37:58.985Z,10.03
2024-01-29T00:40:26.825Z,10.40
2024-01-29T00:42:54.534Z,10.73
2024-01-29T00:45:23.777Z,9.97
2024-01-29T00:47:51.614Z,10.33
2024-01-29T00:50:19.441Z,10.40
2024-01-29T00:52:50.409Z,10.63
2024-01-29T00:55:18.195Z,10.37
2024-01-29T00:57:46.024Z,10.80
2024-01-29T01:00:15.500Z,11.37
2024-01-29T01:02:44.680Z,10.27
2024-01-29T01:05:12.614Z,11.17
2024-01-29T01:07:40.397Z,11.30
2024-01-29T01:10:09.422Z,11.47
2024-01-29T01:12:37.258Z,11.87
2024-01-29T01:15:05.598Z,11.47
2024-01-29T01:17:35.614Z,11.97
2024-01-29T01:20:05.673Z,11.47
2024-01-29T01:22:33.705Z,11.73
2024-01-29T01:25:01.543Z,10.93
2024-01-29T01:27:29.381Z,11.10
2024-01-29T01:29:57.189Z,10.67
2024-01-29T01:32:25.042Z,10.80
2024-01-29T01:34:52.801Z,11.17
2024-01-29T01:37:21.912Z,11.47
2024-01-29T01:39:53.777Z,11.67
2024-01-29T01:42:22.239Z,11.73
2024-01-29T01:44:50.085Z,11.13
2024-01-29T01:47:17.918Z,12.27
2024-01-29T01:49:45.854Z,10.70
2024-01-29T01:52:13.876Z,12.40
2024-01-29T01:54:43.008Z,11.90
2024-01-29T01:57:11.799Z,11.77
2024-01-29T01:59:41.101Z,12.17
2024-01-29T02:02:09.617Z,12.50
2024-01-29T02:04:39.349Z,12.03
2024-01-29T02:07:07.617Z,12.87
2024-01-29T02:09:38.131Z,12.03
2024-01-29T02:12:07.748Z,11.77
2024-01-29T02:14:36.018Z,12.17
2024-01-29T02:17:04.421Z,11.40
2024-01-29T02:19:32.599Z,12.80
2024-01-29T02:22:00.519Z,12.03
2024-01-29T02:24:29.697Z,11.73
2024-01-29T02:26:57.473Z,11.63
2024-01-29T02:29:25.652Z,11.53
2024-01-29T02:31:53.404Z,12.17
2024-01-29T02:34:21.581Z,11.67
2024-01-29T02:36:49.435Z,11.67
2024-01-29T02:39:17.150Z,12.13
2024-01-29T02:41:48.153Z,11.80
2024-01-29T02:44:15.837Z,11.60
2024-01-29T02:46:43.594Z,11.43
2024-01-29T02:49:11.471Z,11.67
2024-01-29T02:51:39.289Z,11.43
2024-01-29T02:54:07.099Z,11.40
2024-01-29T02:56:37.201Z,11.33
2024-01-29T02:59:06.311Z,11.47
2024-01-29T03:01:34.203Z,11.90
2024-01-29T03:04:02.118Z,11.53
2024-01-29T03:06:29.948Z,11.33
2024-01-29T03:08:57.758Z,11.23
2024-01-29T03:11:25.682Z,11.60
2024-01-29T03:13:53.465Z,10.53
2024-01-29T03:16:22.557Z,11.93
2024-01-29T03:18:50.345Z,11.30
2024-01-29T03:21:18.122Z,11.20
2024-01-29T03:23:45.860Z,11.30
2024-01-29T03:26:13.618Z,11.33
2024-01-29T03:28:43.123Z,11.50
2024-01-29T03:31:10.947Z,11.43
2024-01-29T03:33:40.233Z,12.97
2024-01-29T03:36:09.496Z,11.60
2024-01-29T03:38:38.897Z,11.87
2024-01-29T03:41:06.632Z,11.50
2024-01-29T03:43:36.791Z,11.57
2024-01-29T03:46:04.861Z,11.90
2024-01-29T03:48:32.736Z,11.20
2024-01-29T03:51:01.869Z,11.80
2024-01-29T03:53:29.669Z,12.03
2024-01-29T03:55:58.389Z,11.77
2024-01-29T03:58:26.258Z,11.07
2024-01-29T04:00:54.142Z,11.70
2024-01-29T04:03:22.015Z,11.60
2024-01-29T04:05:49.791Z,11.27
2024-01-29T04:08:19.030Z,12.50
2024-01-29T04:10:46.788Z,10.93
2024-01-29T04:13:14.589Z,13.00
2024-01-29T04:15:42.369Z,11.43
2024-01-29T04:18:10.307Z,12.47
2024-01-29T04:20:38.143Z,11.53
2024-01-29T04:23:05.884Z,12.43
2024-01-29T04:25:37.388Z,11.83
2024-01-29T04:28:05.612Z,12.27
2024-01-29T04:30:33.733Z,12.40
2024-01-29T04:33:01.823Z,12.17
2024-01-29T04:35:29.478Z,12.33
2024-01-29T04:37:57.176Z,12.33
2024-01-29T04:40:25.015Z,11.50
2024-01-29T04:42:54.160Z,12.97
2024-01-29T04:45:21.964Z,12.47
2024-01-29T04:47:49.802Z,12.67
2024-01-29T04:50:17.921Z,12.63
2024-01-29T04:52:45.773Z,13.10
2024-01-29T04:55:13.624Z,12.57
2024-01-29T04:57:41.424Z,13.07
2024-01-29T05:00:11.879Z,13.10
2024-01-29T05:02:39.617Z,12.40
2024-01-29T05:05:07.492Z,12.97
2024-01-29T05:07:38.165Z,12.73
2024-01-29T05:10:06.592Z,12.67
2024-01-29T05:12:34.809Z,12.87
2024-01-29T05:15:02.677Z,12.50
2024-01-29T05:17:31.748Z,12.50
2024-01-29T05:19:59.551Z,12.70
2024-01-29T05:22:27.425Z,13.50
2024-01-29T05:24:55.269Z,14.37
2024-01-29T05:27:23.098Z,13.17
2024-01-29T05:29:50.841Z,13.43
2024-01-29T05:32:18.683Z,13.23
2024-01-29T05:34:50.207Z,13.47
2024-01-29T05:37:17.998Z,13.50
2024-01-29T05:39:45.728Z,13.40
2024-01-29T05:42:13.550Z,13.23
2024-01-29T05:44:41.302Z,13.23
2024-01-29T05:47:09.051Z,14.10
2024-01-29T05:49:37.473Z,14.10
2024-01-29T05:52:07.135Z,13.87
2024-01-29T05:54:34.952Z,13.93
2024-01-29T05:57:03.325Z,14.93
2024-01-29T05:59:31.109Z,14.33
2024-01-29T06:01:58.938Z,15.40
2024-01-29T06:04:26.801Z,14.67
2024-01-29T06:06:54.752Z,14.33
2024-01-29T06:09:24.477Z,15.50
2024-01-29T06:11:52.460Z,15.30
2024-01-29T06:14:20.323Z,15.07
2024-01-29T06:16:48.054Z,15.33
2024-01-29T06:19:18.900Z,15.50
2024-01-29T06:21:47.149Z,15.13
2024-01-29T06:24:14.901Z,14.53
2024-01-29T06:26:46.516Z,14.57
2024-01-29T06:29:15.782Z,14.83
2024-01-29T06:31:43.934Z,14.43
2024-01-29T06:34:11.882Z,15.47
2024-01-29T06:36:39.971Z,14.87
2024-01-29T06:39:08.706Z,15.10
2024-01-29T06:41:36.700Z,15.13
2024-01-29T06:44:06.136Z,15.37
2024-01-29T06:46:33.925Z,16.17
2024-01-29T06:49:01.815Z,15.70
2024-01-29T06:51:29.617Z,15.30
2024-01-29T06:53:58.657Z,14.83
2024-01-29T06:56:26.406Z,15.07
2024-01-29T06:58:54.290Z,15.33
2024-01-29T07:01:23.524Z,15.10
2024-01-29T07:03:51.424Z,15.73
2024-01-29T07:06:19.880Z,16.23
2024-01-29T07:08:50.236Z,14.87
2024-01-29T07:11:18.125Z,15.80
2024-01-29T07:13:45.917Z,16.33
2024-01-29T07:16:13.720Z,15.47
2024-01-29T07:18:42.937Z,15.50
2024-01-29T07:21:11.733Z,14.70
2024-01-29T07:23:39.713Z,15.20
2024-01-29T07:26:07.483Z,15.03
2024-01-29T07:28:35.858Z,14.90
2024-01-29T07:31:03.651Z,15.80
2024-01-29T07:33:31.591Z,15.43
2024-01-29T07:36:00.739Z,14.37
2024-01-29T07:38:28.816Z,15.57
2024-01-29T07:40:56.725Z,15.50
2024-01-29T07:43:24.579Z,14.83
2024-01-29T07:45:53.025Z,15.93
2024-01-29T07:48:21.850Z,16.77
2024-01-29T07:50:49.636Z,16.20
2024-01-29T07:53:18.971Z,16.20
2024-01-29T07:55:46.874Z,15.70
2024-01-29T07:58:14.795Z,16.63
2024-01-29T08:00:43.371Z,17.60
2024-01-29T08:03:11.216Z,16.80
2024-01-29T08:05:39.035Z,17.80
2024-01-29T08:08:07.970Z,16.83
2024-01-29T08:10:40.140Z,17.23
2024-01-29T08:13:08.116Z,18.23
2024-01-29T08:15:38.863Z,17.80
2024-01-29T08:18:07.917Z,17.10
2024-01-29T08:20:38.841Z,16.87
2024-01-29T08:23:06.809Z,17.10
2024-01-29T08:25:36.862Z,17.40
2024-01-29T08:28:06.782Z,18.43
2024-01-29T08:30:36.721Z,17.63
2024-01-29T08:33:04.991Z,17.30
2024-01-29T08:35:32.799Z,17.27
2024-01-29T08:38:01.711Z,17.90
2024-01-29T08:40:30.852Z,17.83
2024-01-29T08:42:59.031Z,18.23
2024-01-29T08:45:28.195Z,18.23
2024-01-29T08:47:56.135Z,17.70
2024-01-29T08:50:23.972Z,17.93
2024-01-29T08:52:51.734Z,17.47
2024-01-29T08:55:19.476Z,18.10
2024-01-29T08:57:50.672Z,18.43
2024-01-29T09:00:19.051Z,17.17
2024-01-29T09:02:50.538Z,18.37
2024-01-29T09:05:18.905Z,17.97
2024-01-29T09:07:46.719Z,18.87
2024-01-29T09:10:14.649Z,18.00
2024-01-29T09:12:42.434Z,19.43
2024-01-29T09:15:10.910Z,18.50
2024-01-29T09:17:38.947Z,17.87
2024-01-29T09:20:13.410Z,18.27
2024-01-29T09:22:41.316Z,18.10
2024-01-29T09:25:09.510Z,18.77
2024-01-29T09:27:37.929Z,18.30
2024-01-29T09:30:06.799Z,18.00
2024-01-29T09:32:34.926Z,18.13
2024-01-29T09:35:02.927Z,18.33
2024-01-29T09:37:32.152Z,19.17
2024-01-29T09:39:59.892Z,18.40
2024-01-29T09:42:31.631Z,19.27
2024-01-29T09:45:02.881Z,18.20
2024-01-29T09:47:32.574Z,18.23
2024-01-29T09:50:01.110Z,18.60
2024-01-29T09:52:29.782Z,18.73
2024-01-29T09:55:00.071Z,20.30
2024-01-29T09:57:27.917Z,20.00
2024-01-29T09:59:55.718Z,18.83
2024-01-29T10:02:26.454Z,19.10
2024-01-29T10:04:54.292Z,20.10
2024-01-29T10:07:22.222Z,19.70
2024-01-29T10:09:52.707Z,20.00
2024-01-29T10:12:29.270Z,19.40
2024-01-29T10:14:58.030Z,20.67
2024-01-29T10:17:26.849Z,20.57
2024-01-29T10:19:54.922Z,20.10
2024-01-29T10:22:25.466Z,19.27
2024-01-29T10:25:01.852Z,20.93
2024-01-29T10:27:31.133Z,21.33
2024-01-29T10:29:58.926Z,20.80
2024-01-29T10:32:27.055Z,20.77
2024-01-29T10:34:55.074Z,20.47
2024-01-29T10:37:23.904Z,21.07
2024-01-29T10:39:59.474Z,19.97
2024-01-29T10:42:32.612Z,20.13
2024-01-29T10:45:03.405Z,20.37
2024-01-29T10:47:35.715Z,21.40
2024-01-29T10:50:04.215Z,20.83
2024-01-29T10:52:33.400Z,19.97
2024-01-29T10:55:01.796Z,20.00
2024-01-29T10:57:32.167Z,20.67
2024-01-29T11:00:02.598Z,20.93
2024-01-29T11:02:31.170Z,21.80
2024-01-29T11:04:59.024Z,20.87
2024-01-29T11:07:30.115Z,22.27
2024-01-29T11:10:08.150Z,21.87
2024-01-29T11:12:41.078Z,22.03
2024-01-29T11:15:11.780Z,21.83
2024-01-29T11:17:41.606Z,23.17
2024-01-29T11:20:13.626Z,22.00
2024-01-29T11:22:42.288Z,21.50
2024-01-29T11:25:14.089Z,22.43
2024-01-29T11:27:42.704Z,22.87
2024-01-29T11:30:17.408Z,23.30
2024-01-29T11:32:47.940Z,22.80
2024-01-29T11:35:21.263Z,21.80
2024-01-29T11:37:53.413Z,22.60
2024-01-29T11:40:35.302Z,22.20
2024-01-29T11:43:10.808Z,21.83
2024-01-29T11:45:40.197Z,22.97
2024-01-29T11:48:12.050Z,22.33
2024-01-29T11:50:40.502Z,22.93
2024-01-29T11:53:11.842Z,23.30
2024-01-29T11:55:40.005Z,22.80
2024-01-29T11:58:13.977Z,24.23
2024-01-29T12:00:44.720Z,24.37
2024-01-29T12:03:15.989Z,22.73
2024-01-29T12:05:44.004Z,21.30
2024-01-29T12:08:16.273Z,23.13
2024-01-29T12:10:44.331Z,22.33
2024-01-29T12:13:15.458Z,21.27
2024-01-29T12:15:45.614Z,22.98
2024-01-29T12:18:18.295Z,22.77
2024-01-29T12:20:48.446Z,21.73
2024-01-29T12:23:17.705Z,23.10
2024-01-29T12:25:46.021Z,22.48
2024-01-29T12:28:16.952Z,23.80
2024-01-29T12:30:54.134Z,23.25
2024-01-29T12:33:28.982Z,23.15
2024-01-29T12:35:57.314Z,22.85
2024-01-29T12:38:25.373Z,22.90
2024-01-29T12:40:57.040Z,23.38
2024-01-29T12:43:28.463Z,24.33
2024-01-29T12:46:06.304Z,22.42
2024-01-29T12:48:35.778Z,22.95
2024-01-29T12:51:03.930Z,24.02
2024-01-29T12:53:31.734Z,24.58
2024-01-29T12:55:59.675Z,23.67
2024-01-29T12:58:27.631Z,23.90
2024-01-29T13:00:55.790Z,23.88
2024-01-29T13:03:25.648Z,24.35
2024-01-29T13:05:55.265Z,26.27
2024-01-29T13:08:24.976Z,24.58
2024-01-29T13:10:52.763Z,23.08
2024-01-29T13:13:23.366Z,24.38
2024-01-29T13:15:52.482Z,27.52
2024-01-29T13:18:20.502Z,24.30
2024-01-29T13:20:49.709Z,25.63
2024-01-29T13:23:18.406Z,24.80
2024-01-29T13:25:48.161Z,24.17
2024-01-29T13:28:15.993Z,23.80
2024-01-29T13:30:44.449Z,24.40
2024-01-29T13:33:13.224Z,24.60
2024-01-29T13:35:41.051Z,23.08
2024-01-29T13:38:10.118Z,23.10
2024-01-29T13:40:40.663Z,23.73
2024-01-29T13:43:09.333Z,24.35
2024-01-29T13:45:37.605Z,23.35
2024-01-29T13:48:06.377Z,23.27
2024-01-29T13:50:35.591Z,23.60
2024-01-29T13:53:03.548Z,22.17
2024-01-29T13:55:33.774Z,23.67
2024-01-29T13:58:01.612Z,22.90
2024-01-29T14:00:29.555Z,24.02
2024-01-29T14:02:57.362Z,22.98
2024-01-29T14:05:25.228Z,23.08
2024-01-29T14:07:53.108Z,22.65
2024-01-29T14:10:21.139Z,22.58
2024-01-29T14:12:50.383Z,23.75
2024-01-29T14:15:18.745Z,21.67
2024-01-29T14:17:46.656Z,22.58
2024-01-29T14:20:14.881Z,22.02
2024-01-29T14:22:42.820Z,22.35
2024-01-29T14:25:10.652Z,22.45
2024-01-29T14:27:38.511Z,22.02
2024-01-29T14:30:09.188Z,22.88
2024-01-29T14:32:36.989Z,22.50
2024-01-29T14:35:07.223Z,23.35
2024-01-29T14:37:37.949Z,23.00
2024-01-29T14:40:08.932Z,22.90
2024-01-29T14:42:37.081Z,23.23
2024-01-29T14:45:06.306Z,24.08
2024-01-29T14:47:35.929Z,23.50
2024-01-29T14:50:05.095Z,23.98
2024-01-29T14:52:32.915Z,23.48
2024-01-29T14:55:00.786Z,23.00
2024-01-29T14:57:29.118Z,23.02
2024-01-29T14:59:56.966Z,22.98
2024-01-29T15:02:24.847Z,23.35
2024-01-29T15:04:54.267Z,23.85
2024-01-29T15:07:22.384Z,22.65
2024-01-29T15:09:51.213Z,23.73
2024-01-29T15:12:19.767Z,24.23
2024-01-29T15:14:48.024Z,24.27
2024-01-29T15:17:15.999Z,23.52
2024-01-29T15:19:43.979Z,23.90
2024-01-29T15:22:13.375Z,23.40
2024-01-29T15:24:41.406Z,23.83
2024-01-29T15:27:09.377Z,25.17
2024-01-29T15:29:37.769Z,23.50
2024-01-29T15:32:06.126Z,23.05
2024-01-29T15:34:34.017Z,22.30
2024-01-29T15:37:01.929Z,24.20
2024-01-29T15:39:31.650Z,23.30
2024-01-29T15:41:59.381Z,23.95
2024-01-29T15:44:27.782Z,23.13
2024-01-29T15:46:55.536Z,22.80
2024-01-29T15:49:24.385Z,22.77
2024-01-29T15:51:52.260Z,23.45
2024-01-29T15:54:20.047Z,22.65
2024-01-29T15:56:49.238Z,22.25
2024-01-29T15:59:17.033Z,22.88
2024-01-29T16:01:44.846Z,22.35
2024-01-29T16:04:12.727Z,22.17
2024-01-29T16:06:40.525Z,23.88
2024-01-29T16:09:09.176Z,22.98
2024-01-29T16:11:36.847Z,23.25
2024-01-29T16:14:05.929Z,24.60
2024-01-29T16:16:33.846Z,23.65
2024-01-29T16:19:01.604Z,23.50
2024-01-29T16:21:29.336Z,24.73
2024-01-29T16:23:58.336Z,25.00
2024-01-29T16:26:26.105Z,24.47
2024-01-29T16:28:53.757Z,24.60
2024-01-29T16:31:22.945Z,25.02
2024-01-29T16:33:50.702Z,24.70
2024-01-29T16:36:21.840Z,23.52
2024-01-29T16:38:50.781Z,23.85
2024-01-29T16:41:23.089Z,24.52
2024-01-29T16:43:52.224Z,24.30
2024-01-29T16:46:20.622Z,23.30
2024-01-29T16:48:50.520Z,23.00
2024-01-29T16:51:22.859Z,23.93
2024-01-29T16:53:50.678Z,22.58
2024-01-29T16:56:24.117Z,24.00
2024-01-29T16:58:51.904Z,23.02
2024-01-29T17:01:19.665Z,24.30
2024-01-29T17:03:51.544Z,24.38
2024-01-29T17:06:19.493Z,24.02
2024-01-29T17:08:48.287Z,23.77
2024-01-29T17:11:16.040Z,23.97
2024-01-29T17:13:45.626Z,23.53
2024-01-29T17:16:13.590Z,23.33
2024-01-29T17:18:41.454Z,23.33
2024-01-29T17:21:12.712Z,23.50
2024-01-29T17:23:41.077Z,24.13
2024-01-29T17:26:09.559Z,23.73
2024-01-29T17:28:39.016Z,25.63
2024-01-29T17:31:06.870Z,23.60
2024-01-29T17:33:34.910Z,23.87
2024-01-29T17:36:02.834Z,25.10
2024-01-29T17:38:31.971Z,22.77
2024-01-29T17:40:59.850Z,24.77
2024-01-29T17:43:28.342Z,24.23
2024-01-29T17:45:56.712Z,25.23
2024-01-29T17:48:26.480Z,23.77
2024-01-29T17:50:54.308Z,24.83
2024-01-29T17:53:21.971Z,24.00
2024-01-29T17:55:51.100Z,23.67
2024-01-29T17:58:18.988Z,24.00
2024-01-29T18:00:46.806Z,24.90
2024-01-29T18:03:14.685Z,24.23
2024-01-29T18:05:43.599Z,25.13
2024-01-29T18:08:11.534Z,23.80
2024-01-29T18:10:39.235Z,25.10
2024-01-29T18:13:08.316Z,25.77
2024-01-29T18:15:37.017Z,24.93
2024-01-29T18:18:05.225Z,25.23
2024-01-29T18:20:33.204Z,25.10
2024-01-29T18:23:01.805Z,24.27
2024-01-29T18:25:29.505Z,25.03
2024-01-29T18:27:57.329Z,25.67
2024-01-29T18:30:27.914Z,25.77
2024-01-29T18:32:55.723Z,24.70
2024-01-29T18:35:23.642Z,27.53
2024-01-29T18:37:51.692Z,25.40
2024-01-29T18:40:19.484Z,25.10
2024-01-29T18:42:48.268Z,23.97
2024-01-29T18:45:16.291Z,24.17
2024-01-29T18:47:45.532Z,24.87
2024-01-29T18:50:14.679Z,25.13
2024-01-29T18:52:42.716Z,26.33
2024-01-29T18:55:11.311Z,25.47
2024-01-29T18:57:39.197Z,25.80
2024-01-29T19:00:08.217Z,25.90
2024-01-29T19:02:36.369Z,24.83
2024-01-29T19:05:06.140Z,25.60
2024-01-29T19:07:34.725Z,26.43
2024-01-29T19:10:02.704Z,25.00
2024-01-29T19:12:36.521Z,26.60
2024-01-29T19:15:05.690Z,25.33
2024-01-29T19:17:33.963Z,26.43
2024-01-29T19:20:01.728Z,25.67
2024-01-29T19:22:30.820Z,25.80
2024-01-29T19:24:58.657Z,25.57
2024-01-29T19:27:28.127Z,26.90
2024-01-29T19:29:55.864Z,26.30
2024-01-29T19:32:23.656Z,25.27
2024-01-29T19:34:51.451Z,26.90
2024-01-29T19:37:21.468Z,25.70
2024-01-29T19:39:50.748Z,25.87
2024-01-29T19:42:18.516Z,26.53
2024-01-29T19:44:46.435Z,26.63
2024-01-29T19:47:14.814Z,28.10
2024-01-29T19:49:47.265Z,26.70
2024-01-29T19:52:17.359Z,26.00
2024-01-29T19:54:47.667Z,27.33
2024-01-29T19:57:17.294Z,26.70
2024-01-29T19:59:45.310Z,25.47
2024-01-29T20:02:13.281Z,25.60
2024-01-29T20:04:41.213Z,26.57
2024-01-29T20:07:09.081Z,26.00
2024-01-29T20:09:36.943Z,25.30
2024-01-29T20:12:05.142Z,25.07
2024-01-29T20:14:34.752Z,27.13
2024-01-29T20:17:02.555Z,25.97
2024-01-29T20:19:31.026Z,30.40
2024-01-29T20:21:58.774Z,27.47
2024-01-29T20:24:26.909Z,25.90
2024-01-29T20:26:54.637Z,25.63
2024-01-29T20:29:23.012Z,26.57
2024-01-29T20:31:52.198Z,26.23
2024-01-29T20:34:19.961Z,26.67
2024-01-29T20:36:48.065Z,25.73
2024-01-29T20:39:16.615Z,27.67
2024-01-29T20:41:46.994Z,25.87
2024-01-29T20:44:16.598Z,26.27
2024-01-29T20:46:46.075Z,27.40
2024-01-29T20:49:15.856Z,28.00
2024-01-29T20:51:43.922Z,27.17
2024-01-29T20:54:11.845Z,27.13
2024-01-29T20:56:39.822Z,25.40
2024-01-29T20:59:07.767Z,26.47
2024-01-29T21:01:38.440Z,28.77
2024-01-29T21:04:06.696Z,27.93
2024-01-29T21:06:39.984Z,27.70
2024-01-29T21:09:08.024Z,28.33
2024-01-29T21:11:38.876Z,27.07
2024-01-29T21:14:06.572Z,27.20
2024-01-29T21:16:35.635Z,29.27
2024-01-29T21:19:03.485Z,29.10
2024-01-29T21:21:31.435Z,29.30
2024-01-29T21:24:01.851Z,30.10
2024-01-29T21:26:29.625Z,32.27
2024-01-29T21:28:58.525Z,29.80
2024-01-29T21:31:26.504Z,33.13
2024-01-29T21:33:54.424Z,30.63
2024-01-29T21:36:22.204Z,30.57
2024-01-29T21:38:49.907Z,30.77
2024-01-29T21:41:19.039Z,30.17
2024-01-29T21:43:46.742Z,28.50
2024-01-29T21:46:14.627Z,30.43
2024-01-29T21:48:42.509Z,29.97
2024-01-29T21:51:10.391Z,29.97
2024-01-29T21:53:38.108Z,29.00
2024-01-29T21:56:06.368Z,28.07
2024-01-29T21:58:38.379Z,29.03
2024-01-29T22:01:06.379Z,29.83
2024-01-29T22:03:35.074Z,30.83
2024-01-29T22:06:03.025Z,29.47
2024-01-29T22:08:31.459Z,30.10
2024-01-29T22:10:59.230Z,30.10
2024-01-29T22:13:26.994Z,29.03
2024-01-29T22:15:56.290Z,30.97
2024-01-29T22:18:23.988Z,31.00
2024-01-29T22:20:51.747Z,32.33
2024-01-29T22:23:19.529Z,31.93
2024-01-29T22:25:47.467Z,31.97
2024-01-29T22:28:15.180Z,34.70
2024-01-29T22:30:43.011Z,32.00
2024-01-29T22:33:12.282Z,33.33
2024-01-29T22:35:41.171Z,33.63
2024-01-29T22:38:08.914Z,32.53
2024-01-29T22:40:36.709Z,33.57
2024-01-29T22:43:04.963Z,35.60
2024-01-29T22:45:32.726Z,33.27
2024-01-29T22:48:01.125Z,36.23
2024-01-29T22:50:30.475Z,35.93
2024-01-29T22:52:58.159Z,39.63
2024-01-29T22:55:26.602Z,38.00
2024-01-29T22:57:54.428Z,36.67
2024-01-29T23:00:25.631Z,37.20
2024-01-29T23:02:53.873Z,35.33
2024-01-29T23:05:21.854Z,37.30
2024-01-29T23:07:51.345Z,33.33
2024-01-29T23:10:19.260Z,36.50
2024-01-29T23:12:47.240Z,39.00
2024-01-29T23:15:15.182Z,37.90
2024-01-29T23:17:43.369Z,38.17
2024-01-29T23:20:12.618Z,37.73
2024-01-29T23:22:40.441Z,38.57
2024-01-29T23:25:10.309Z,39.23
2024-01-29T23:27:38.141Z,36.93
2024-01-29T23:30:06.836Z,38.80
2024-01-29T23:32:35.812Z,37.60
2024-01-29T23:35:03.578Z,36.97
2024-01-29T23:37:31.370Z,34.43
2024-01-29T23:39:59.253Z,36.40
2024-01-29T23:42:28.586Z,36.77
2024-01-29T23:44:56.421Z,34.43
2024-01-29T23:47:24.170Z,32.57
2024-01-29T23:49:52.098Z,34.00
2024-01-29T23:52:26.998Z,33.70
2024-01-29T23:54:54.882Z,34.63
2024-01-29T23:57:22.833Z,33.83
2024-01-29T23:59:52.343Z,32.83
